Time;durP1;ratioP1;P1;durP2;ratioP2;P2;SDS_P1;SDS_P2;PMS_P1;PMS_P2;Temp;Humidity;BMP_temperature;BMP_pressure;BME280_temperature;BME280_humidity;BME280_pressure;Samples;Min_cycle;Max_cycle;Signal;HPM_P1;HPM_P2
2022/03/07 00:01:05;;;;;;;19.70;11.90;;;;;;;-141.50;100.00;63355.56;4983135;28;20078;-78
2022/03/07 00:03:32;;;;;;;20.25;11.80;;;;;;;-141.50;100.00;63355.56;4984360;28;20123;-77
2022/03/07 00:05:59;;;;;;;20.30;11.77;;;;;;;-141.50;100.00;63355.56;4983075;28;20065;-80
2022/03/07 00:08:25;;;;;;;21.20;11.27;;;;;;;-141.50;100.00;63355.56;4978291;28;20055;-78
2022/03/07 00:11:03;;;;;;;19.60;11.00;;;;;;;-141.50;100.00;63355.56;4973413;28;20054;-77
2022/03/07 00:13:29;;;;;;;20.80;12.35;;;;;;;-141.50;100.00;63355.56;4975566;28;20062;-78
2022/03/07 00:15:56;;;;;;;22.83;11.90;;;;;;;-141.50;100.00;63355.56;4975614;28;20443;-80
2022/03/07 00:18:23;;;;;;;17.13;11.55;;;;;;;-141.50;100.00;63355.56;4974982;28;20046;-78
2022/03/07 00:20:50;;;;;;;20.42;11.15;;;;;;;-141.50;100.00;63355.56;4973933;28;20105;-79
2022/03/07 00:23:16;;;;;;;21.67;11.98;;;;;;;-141.50;100.00;63355.56;4972590;28;20054;-79
2022/03/07 00:25:43;;;;;;;22.20;12.75;;;;;;;-141.50;100.00;63355.56;4974758;28;20047;-78
2022/03/07 00:28:10;;;;;;;20.25;12.75;;;;;;;-141.50;100.00;63355.56;4975211;28;20050;-79
2022/03/07 00:30:37;;;;;;;21.23;11.93;;;;;;;-141.50;100.00;63355.56;4973871;28;20054;-79
2022/03/07 00:33:04;;;;;;;22.13;13.40;;;;;;;-141.50;100.00;63355.56;4974822;28;20058;-78
2022/03/07 00:35:31;;;;;;;26.90;13.20;;;;;;;-141.50;100.00;63355.56;4974185;28;20117;-78
2022/03/07 00:37:58;;;;;;;22.80;12.38;;;;;;;-141.50;100.00;63355.56;4973797;28;20054;-78
2022/03/07 00:40:25;;;;;;;19.42;12.07;;;;;;;-141.50;100.00;63355.56;4977018;28;20057;-78
2022/03/07 00:42:53;;;;;;;18.20;11.70;;;;;;;-141.50;100.00;63355.56;4974826;28;20113;-78
2022/03/07 00:45:20;;;;;;;21.00;11.70;;;;;;;-141.50;100.00;63355.56;4974976;28;20388;-78
2022/03/07 00:47:46;;;;;;;19.88;10.82;;;;;;;-141.50;100.00;63355.56;4974950;28;20455;-78
2022/03/07 00:50:13;;;;;;;21.38;11.07;;;;;;;-141.50;100.00;63355.56;4973833;28;20117;-79
2022/03/07 00:52:40;;;;;;;19.63;11.07;;;;;;;-141.50;100.00;63355.56;4975369;28;20058;-80
2022/03/07 00:55:08;;;;;;;18.48;10.63;;;;;;;-141.50;100.00;63355.56;4974144;28;20082;-78
2022/03/07 00:57:35;;;;;;;18.95;10.52;;;;;;;-141.50;100.00;63355.56;4975328;28;20050;-78
2022/03/07 01:00:03;;;;;;;20.88;10.85;;;;;;;-141.50;100.00;63355.56;4974565;28;20109;-77
2022/03/07 01:02:30;;;;;;;19.05;11.45;;;;;;;-141.50;100.00;63355.56;4975374;28;20054;-78
2022/03/07 01:05:00;;;;;;;20.48;11.18;;;;;;;-141.50;100.00;63355.56;4973712;28;20050;-75
2022/03/07 01:07:28;;;;;;;17.13;10.45;;;;;;;-141.50;100.00;63355.56;4976283;28;20061;-78
2022/03/07 01:09:54;;;;;;;17.13;10.32;;;;;;;-141.50;100.00;63355.56;4974093;28;20055;-77
2022/03/07 01:12:21;;;;;;;20.40;10.20;;;;;;;-141.50;100.00;63355.56;4975576;28;20047;-78
2022/03/07 01:14:47;;;;;;;17.90;9.95;;;;;;;-141.50;100.00;63355.56;4974413;28;20062;-79
2022/03/07 01:17:16;;;;;;;17.40;10.35;;;;;;;-141.50;100.00;63355.56;4976473;28;20050;-80
2022/03/07 01:19:43;;;;;;;17.98;10.50;;;;;;;-141.50;100.00;63355.56;4976865;28;20387;-81
2022/03/07 01:22:09;;;;;;;16.70;9.73;;;;;;;-141.50;100.00;63355.56;4975053;28;20111;-78
2022/03/07 01:24:37;;;;;;;17.58;9.02;;;;;;;-141.50;100.00;63355.56;4974722;28;20102;-79
2022/03/07 01:27:04;;;;;;;18.40;9.25;;;;;;;-141.50;100.00;63355.56;4974644;28;20043;-79
2022/03/07 01:29:31;;;;;;;20.80;9.07;;;;;;;-141.50;100.00;63355.56;4973661;28;20418;-78
2022/03/07 01:31:57;;;;;;;16.80;9.32;;;;;;;-141.50;100.00;63355.56;4975513;28;20101;-76
2022/03/07 01:34:24;;;;;;;15.07;8.90;;;;;;;-141.50;100.00;63355.56;4976078;28;20054;-79
2022/03/07 01:36:50;;;;;;;14.88;8.20;;;;;;;-141.50;100.00;63355.56;4993051;28;20103;-77
2022/03/07 01:39:17;;;;;;;16.70;8.70;;;;;;;-141.50;100.00;63355.56;4976960;28;20208;-79
2022/03/07 01:41:43;;;;;;;15.32;8.13;;;;;;;-141.50;100.00;63355.56;4977896;28;20112;-79
2022/03/07 01:44:21;;;;;;;17.25;8.45;;;;;;;-141.50;100.00;63355.56;4976954;28;20054;-79
2022/03/07 01:46:48;;;;;;;18.58;8.48;;;;;;;-141.50;100.00;63355.56;4978048;28;20054;-75
2022/03/07 01:49:15;;;;;;;17.17;9.15;;;;;;;-141.50;100.00;63355.56;4977997;28;20050;-77
2022/03/07 01:51:44;;;;;;;16.05;8.20;;;;;;;-141.50;100.00;63355.56;4975956;28;20055;-77
2022/03/07 01:54:14;;;;;;;15.88;8.55;;;;;;;-141.50;100.00;63355.56;4975415;28;20051;-78
2022/03/07 01:56:45;;;;;;;14.98;8.52;;;;;;;-141.50;100.00;63355.56;4975324;28;20128;-79
2022/03/07 01:59:13;;;;;;;14.73;7.50;;;;;;;-141.50;100.00;63355.56;4975071;28;20089;-79
2022/03/07 02:01:40;;;;;;;16.55;8.65;;;;;;;-141.50;100.00;63355.56;4975351;28;20495;-77
2022/03/07 02:04:08;;;;;;;14.75;7.75;;;;;;;-141.50;100.00;63355.56;4988015;28;20518;-79
2022/03/07 02:06:36;;;;;;;14.85;7.70;;;;;;;-141.50;100.00;63355.56;4988842;28;20059;-78
2022/03/07 02:09:03;;;;;;;14.52;7.65;;;;;;;-141.50;100.00;63355.56;4972694;28;20093;-78
2022/03/07 02:11:32;;;;;;;13.63;7.95;;;;;;;-141.50;100.00;63355.56;4975309;28;20090;-79
2022/03/07 02:14:12;;;;;;;13.68;7.82;;;;;;;-141.50;100.00;63355.56;4975018;28;20518;-77
2022/03/07 02:16:39;;;;;;;19.77;8.25;;;;;;;-141.50;100.00;63355.56;4973885;28;20495;-78
2022/03/07 02:19:05;;;;;;;15.10;8.20;;;;;;;-141.50;100.00;63355.56;4973670;28;20047;-79
2022/03/07 02:21:35;;;;;;;15.75;7.53;;;;;;;-141.50;100.00;63355.56;4986346;28;20055;-79
2022/03/07 02:24:03;;;;;;;16.40;7.22;;;;;;;-141.50;100.00;63355.56;4958748;28;20597;-78
2022/03/07 02:26:30;;;;;;;16.30;7.68;;;;;;;-141.50;100.00;63355.56;4954637;29;20468;-77
2022/03/07 02:28:57;;;;;;;14.20;7.95;;;;;;;-141.50;100.00;63355.56;4954173;29;20480;-75
2022/03/07 02:31:24;;;;;;;16.90;7.55;;;;;;;-141.50;100.00;63355.56;4954776;29;20059;-78
2022/03/07 02:33:51;;;;;;;11.18;7.10;;;;;;;-141.50;100.00;63355.56;4958417;29;20143;-79
2022/03/07 02:36:17;;;;;;;20.38;7.10;;;;;;;-141.50;100.00;63355.56;4956622;29;20420;-77
2022/03/07 02:38:44;;;;;;;12.15;6.60;;;;;;;-141.50;100.00;63355.56;4972624;28;20051;-78
2022/03/07 02:41:11;;;;;;;12.35;6.38;;;;;;;-141.50;100.00;63355.56;4958392;29;20110;-80
2022/03/07 02:43:37;;;;;;;17.20;7.05;;;;;;;-141.50;100.00;63355.56;4960142;28;20484;-77
2022/03/07 02:46:04;;;;;;;19.05;7.20;;;;;;;-141.50;100.00;63355.56;4957839;28;20058;-77
2022/03/07 02:48:31;;;;;;;17.83;6.97;;;;;;;-141.50;100.00;63355.56;4958120;29;20057;-80
2022/03/07 02:50:58;;;;;;;13.68;6.70;;;;;;;-141.50;100.00;63355.56;4957099;29;20047;-79
2022/03/07 02:53:26;;;;;;;13.30;6.85;;;;;;;-141.50;100.00;63355.56;4957628;29;20047;-77
2022/03/07 02:55:54;;;;;;;12.50;6.43;;;;;;;-141.50;100.00;63355.56;4956144;28;20146;-78
2022/03/07 02:58:21;;;;;;;12.13;6.65;;;;;;;-141.50;100.00;63355.56;4955281;29;20055;-78
2022/03/07 03:00:48;;;;;;;12.63;6.47;;;;;;;-141.50;100.00;63355.56;4955508;29;20053;-80
2022/03/07 03:03:15;;;;;;;11.68;6.45;;;;;;;-141.50;100.00;63355.56;4963211;29;20051;-80
2022/03/07 03:05:42;;;;;;;13.20;6.93;;;;;;;-141.50;100.00;63355.56;4974869;29;20173;-77
2022/03/07 03:08:09;;;;;;;13.65;7.20;;;;;;;-141.50;100.00;63355.56;4972640;29;20428;-78
2022/03/07 03:10:36;;;;;;;13.50;7.00;;;;;;;-141.50;100.00;63355.56;4957653;29;20492;-78
2022/03/07 03:13:03;;;;;;;12.50;7.10;;;;;;;-141.50;100.00;63355.56;4954805;29;20047;-79
2022/03/07 03:15:30;;;;;;;12.00;6.55;;;;;;;-141.50;100.00;63355.56;4954510;29;20098;-80
2022/03/07 03:17:57;;;;;;;13.50;6.68;;;;;;;-141.50;100.00;63355.56;4953899;29;20511;-77
2022/03/07 03:20:23;;;;;;;13.73;6.25;;;;;;;-141.50;100.00;63355.56;4954151;29;20487;-76
2022/03/07 03:22:52;;;;;;;13.70;6.35;;;;;;;-141.50;100.00;63355.56;4955830;28;20055;-79
2022/03/07 03:25:19;;;;;;;13.48;6.80;;;;;;;-141.50;100.00;63355.56;4956693;28;20058;-79
2022/03/07 03:27:45;;;;;;;11.55;6.18;;;;;;;-141.50;100.00;63355.56;4958854;29;20051;-77
2022/03/07 03:30:13;;;;;;;12.43;6.65;;;;;;;-141.50;100.00;63355.56;4958360;29;20055;-78
2022/03/07 03:32:40;;;;;;;13.20;6.47;;;;;;;-141.50;100.00;63355.56;4959395;28;20059;-79
2022/03/07 03:35:07;;;;;;;14.10;6.32;;;;;;;-141.50;100.00;63355.56;4956947;29;20767;-79
2022/03/07 03:37:34;;;;;;;14.60;6.50;;;;;;;-141.50;100.00;63355.56;4956961;29;20035;-79
2022/03/07 03:40:01;;;;;;;15.73;5.78;;;;;;;-141.50;100.00;63355.56;4957227;28;20062;-80
2022/03/07 03:42:27;;;;;;;12.60;6.40;;;;;;;-141.50;100.00;63355.56;4957917;28;20054;-79
2022/03/07 03:44:54;;;;;;;11.20;6.05;;;;;;;-141.50;100.00;63355.56;4958181;29;20114;-80
2022/03/07 03:47:20;;;;;;;13.10;6.38;;;;;;;-141.50;100.00;63355.56;4958981;29;20051;-78
2022/03/07 03:49:47;;;;;;;11.88;6.22;;;;;;;-141.50;100.00;63355.56;4958266;29;20476;-78
2022/03/07 03:52:14;;;;;;;13.02;6.38;;;;;;;-141.50;100.00;63355.56;4958752;28;20043;-78
2022/03/07 03:54:40;;;;;;;16.05;6.18;;;;;;;-141.50;100.00;63355.56;4971401;28;20058;-79
2022/03/07 03:57:07;;;;;;;12.80;6.60;;;;;;;-141.50;100.00;63355.56;4955826;28;20047;-79
2022/03/07 03:59:34;;;;;;;13.77;6.55;;;;;;;-141.50;100.00;63355.56;4958545;29;20055;-79
2022/03/07 04:02:04;;;;;;;13.35;6.68;;;;;;;-141.50;100.00;63355.56;4959873;28;20087;-80
2022/03/07 04:04:31;;;;;;;11.30;5.90;;;;;;;-141.50;100.00;63355.56;4961628;29;20081;-78
2022/03/07 04:06:58;;;;;;;14.02;6.45;;;;;;;-141.50;100.00;63355.56;4959919;28;20047;-78
2022/03/07 04:09:28;;;;;;;13.95;5.95;;;;;;;-141.50;100.00;63355.56;4959134;29;20098;-78
2022/03/07 04:11:55;;;;;;;15.68;6.32;;;;;;;-141.50;100.00;63355.56;4959418;28;20062;-79
2022/03/07 04:14:23;;;;;;;11.02;5.53;;;;;;;-141.50;100.00;63355.56;4957146;29;20810;-79
2022/03/07 04:16:52;;;;;;;14.18;5.95;;;;;;;-141.50;100.00;63355.56;4974955;28;20114;-78
2022/03/07 04:19:19;;;;;;;9.82;6.20;;;;;;;-141.50;100.00;63355.56;4977816;28;20086;-79
2022/03/07 04:21:46;;;;;;;12.77;6.30;;;;;;;-141.50;100.00;63355.56;4961537;29;20051;-78
2022/03/07 04:24:13;;;;;;;13.88;6.05;;;;;;;-141.50;100.00;63355.56;4956711;29;20101;-79
2022/03/07 04:26:42;;;;;;;11.55;5.90;;;;;;;-141.50;100.00;63355.56;4956266;29;20066;-79
2022/03/07 04:29:09;;;;;;;16.50;5.72;;;;;;;-141.50;100.00;63355.56;4956191;29;20047;-79
2022/03/07 04:31:38;;;;;;;11.88;6.20;;;;;;;-141.50;100.00;63355.56;4960347;29;20129;-80
2022/03/07 04:34:06;;;;;;;9.98;5.72;;;;;;;-141.50;100.00;63355.56;4961280;29;20051;-79
2022/03/07 04:36:35;;;;;;;14.63;5.93;;;;;;;-141.50;100.00;63355.56;4958360;29;20134;-76
2022/03/07 04:39:03;;;;;;;11.80;5.50;;;;;;;-141.50;100.00;63355.56;4958253;29;20051;-80
2022/03/07 04:41:30;;;;;;;12.20;6.00;;;;;;;-141.50;100.00;63355.56;4959868;28;20058;-78
2022/03/07 04:43:57;;;;;;;12.55;5.75;;;;;;;-141.50;100.00;63355.56;4957102;28;20055;-78
2022/03/07 04:46:24;;;;;;;14.27;6.68;;;;;;;-141.50;100.00;63355.56;4957184;29;20051;-76
2022/03/07 04:48:56;;;;;;;14.65;6.18;;;;;;;-141.50;100.00;63355.56;4963127;29;20051;-80
2022/03/07 04:51:23;;;;;;;13.07;5.88;;;;;;;-141.50;100.00;63355.56;4961873;29;20096;-78
2022/03/07 04:53:50;;;;;;;13.82;6.32;;;;;;;-141.50;100.00;63355.56;4958695;29;20147;-79
2022/03/07 04:56:16;;;;;;;13.00;5.63;;;;;;;-141.50;100.00;63355.56;4954028;29;20058;-79
2022/03/07 04:58:43;;;;;;;14.38;5.45;;;;;;;-141.50;100.00;63355.56;4956298;28;20174;-80
2022/03/07 05:01:09;;;;;;;12.43;5.63;;;;;;;-141.50;100.00;63355.56;4955142;28;20061;-79
2022/03/07 05:03:36;;;;;;;11.50;5.63;;;;;;;-141.50;100.00;63355.56;4954177;29;20447;-78
2022/03/07 05:06:03;;;;;;;13.05;6.13;;;;;;;-141.50;100.00;63355.56;4953182;28;20145;-78
2022/03/07 05:08:30;;;;;;;11.43;5.60;;;;;;;-141.50;100.00;63355.56;4951842;28;20055;-81
2022/03/07 05:10:56;;;;;;;12.02;5.35;;;;;;;-141.50;100.00;63355.56;4953770;29;20129;-78
2022/03/07 05:13:23;;;;;;;10.90;5.88;;;;;;;-141.50;100.00;63355.56;4955931;29;20054;-79
2022/03/07 05:15:49;;;;;;;16.00;6.22;;;;;;;-141.50;100.00;63355.56;4955842;29;20748;-79
2022/03/07 05:18:19;;;;;;;14.20;6.18;;;;;;;-141.50;100.00;63355.56;4953559;29;20494;-79
2022/03/07 05:20:46;;;;;;;13.73;6.10;;;;;;;-141.50;100.00;63355.56;4952515;29;20048;-78
2022/03/07 05:23:23;;;;;;;11.77;6.03;;;;;;;-141.50;100.00;63355.56;4953897;28;20081;-76
2022/03/07 05:25:49;;;;;;;10.32;5.68;;;;;;;-141.50;100.00;63355.56;4953550;29;20061;-76
2022/03/07 05:28:16;;;;;;;11.45;6.43;;;;;;;-141.50;100.00;63355.56;4953517;28;20404;-77
2022/03/07 05:30:45;;;;;;;15.23;6.40;;;;;;;-141.50;100.00;63355.56;4953342;29;20051;-78
2022/03/07 05:33:12;;;;;;;11.30;6.72;;;;;;;-141.50;100.00;63355.56;4954145;29;20471;-76
2022/03/07 05:35:38;;;;;;;14.20;6.40;;;;;;;-141.50;100.00;63355.56;4954477;29;20051;-76
2022/03/07 05:38:05;;;;;;;11.95;6.07;;;;;;;-141.50;100.00;63355.56;4953116;28;20052;-76
2022/03/07 05:40:32;;;;;;;17.75;6.47;;;;;;;-141.50;100.00;63355.56;4953112;29;20558;-76
2022/03/07 05:42:58;;;;;;;17.08;7.07;;;;;;;-141.50;100.00;63355.56;4954436;28;20055;-75
2022/03/07 05:45:25;;;;;;;14.30;7.88;;;;;;;-141.50;100.00;63355.56;4955229;29;20047;-79
2022/03/07 05:47:52;;;;;;;15.13;6.88;;;;;;;-141.50;100.00;63355.56;4954225;29;20388;-79
2022/03/07 05:50:18;;;;;;;14.85;7.30;;;;;;;-141.50;100.00;63355.56;4956433;29;20051;-79
2022/03/07 05:52:45;;;;;;;13.00;7.40;;;;;;;-141.50;100.00;63355.56;4957046;29;20381;-79
2022/03/07 05:55:11;;;;;;;13.73;6.47;;;;;;;-141.50;100.00;63355.56;4958826;28;20051;-80
2022/03/07 05:57:38;;;;;;;12.85;6.38;;;;;;;-141.50;100.00;63355.56;4967775;28;20098;-80
2022/03/07 06:00:07;;;;;;;15.82;6.60;;;;;;;-141.50;100.00;63355.56;4965093;28;20106;-80
2022/03/07 06:02:34;;;;;;;12.65;6.13;;;;;;;-141.50;100.00;63355.56;4968567;28;20050;-80
2022/03/07 06:05:03;;;;;;;13.18;6.03;;;;;;;-141.50;100.00;63355.56;4981698;28;20137;-81
2022/03/07 06:07:30;;;;;;;15.82;6.13;;;;;;;-141.50;100.00;63355.56;4980900;28;20050;-78
2022/03/07 06:09:57;;;;;;;10.57;6.25;;;;;;;-141.50;100.00;63355.56;4975072;28;20053;-81
2022/03/07 06:12:26;;;;;;;16.05;6.72;;;;;;;-141.50;100.00;63355.56;4972304;28;20055;-80
2022/03/07 06:14:54;;;;;;;120.90;33.28;;;;;;;-141.50;100.00;63355.56;4962109;28;20539;-79
2022/03/07 06:17:21;;;;;;;30.05;11.20;;;;;;;-141.50;100.00;63355.56;4964928;28;20059;-80
2022/03/07 06:19:48;;;;;;;37.10;13.05;;;;;;;-141.50;100.00;63355.56;4966564;28;20069;-78
2022/03/07 06:22:15;;;;;;;37.90;13.35;;;;;;;-141.50;100.00;63355.56;4967710;28;20090;-81
2022/03/07 06:24:42;;;;;;;46.33;13.18;;;;;;;-141.50;100.00;63355.56;4969755;28;20156;-77
2022/03/07 06:27:08;;;;;;;20.05;7.40;;;;;;;-141.50;100.00;63355.56;4962725;28;20152;-79
2022/03/07 06:29:35;;;;;;;16.65;6.75;;;;;;;-141.50;100.00;63355.56;4970565;28;20097;-78
2022/03/07 06:32:01;;;;;;;14.43;6.20;;;;;;;-141.50;100.00;63355.56;4975961;28;20058;-79
2022/03/07 06:34:28;;;;;;;14.98;6.43;;;;;;;-141.50;100.00;63355.56;4982598;28;20062;-80
2022/03/07 06:36:55;;;;;;;20.77;7.93;;;;;;;-141.50;100.00;63355.56;4979904;28;20055;-78
2022/03/07 06:39:25;;;;;;;29.30;9.75;;;;;;;-141.50;100.00;63355.56;4969232;28;20083;-78
2022/03/07 06:41:52;;;;;;;47.45;15.32;;;;;;;-141.50;100.00;63355.56;4983900;28;20149;-78
2022/03/07 06:44:19;;;;;;;60.92;18.08;;;;;;;-141.50;100.00;63355.56;4968439;28;20070;-79
2022/03/07 06:46:46;;;;;;;47.95;13.82;;;;;;;-141.50;100.00;63355.56;4968194;28;20077;-79
2022/03/07 06:49:12;;;;;;;11.73;6.05;;;;;;;-141.50;100.00;63355.56;4968018;28;20055;-77
2022/03/07 06:51:39;;;;;;;13.20;5.53;;;;;;;-141.50;100.00;63355.56;4966464;28;20055;-78
2022/03/07 06:54:06;;;;;;;12.02;5.53;;;;;;;-141.50;100.00;63355.56;4967194;28;20062;-79
2022/03/07 06:56:32;;;;;;;10.55;5.47;;;;;;;-141.50;100.00;63355.56;4966492;28;20050;-78
2022/03/07 06:58:59;;;;;;;13.43;5.80;;;;;;;-141.50;100.00;63355.56;4981121;28;20521;-77
2022/03/07 07:01:26;;;;;;;11.35;6.15;;;;;;;-141.50;100.00;63355.56;4967688;28;20054;-77
2022/03/07 07:03:53;;;;;;;11.52;5.80;;;;;;;-141.50;100.00;63355.56;4967157;28;20047;-79
2022/03/07 07:06:19;;;;;;;17.67;6.90;;;;;;;-141.50;100.00;63355.56;4970802;28;20794;-77
2022/03/07 07:08:46;;;;;;;28.05;8.23;;;;;;;-141.50;100.00;63355.56;4974777;28;20046;-78
2022/03/07 07:11:12;;;;;;;49.97;12.93;;;;;;;-141.50;100.00;63355.56;5005953;28;20116;-80
2022/03/07 07:13:39;;;;;;;12.07;5.70;;;;;;;-141.50;100.00;63355.56;4979764;28;20047;-78
2022/03/07 07:16:06;;;;;;;14.98;6.03;;;;;;;-141.50;100.00;63355.56;4969386;28;20046;-78
2022/03/07 07:18:33;;;;;;;15.68;6.55;;;;;;;-141.50;100.00;63355.56;4971666;28;20043;-79
2022/03/07 07:20:59;;;;;;;24.02;9.00;;;;;;;-141.50;100.00;63355.56;4969115;28;20047;-81
2022/03/07 07:23:26;;;;;;;15.90;5.75;;;;;;;-141.50;100.00;63355.56;4972423;28;20101;-78
2022/03/07 07:25:54;;;;;;;30.88;10.75;;;;;;;-141.50;100.00;63355.56;4970415;28;20173;-77
2022/03/07 07:28:20;;;;;;;31.50;10.98;;;;;;;-141.50;100.00;63355.56;4971476;28;20078;-79
2022/03/07 07:30:47;;;;;;;17.05;6.63;;;;;;;-141.50;100.00;63355.56;4971454;28;20051;-78
2022/03/07 07:33:15;;;;;;;44.22;13.38;;;;;;;-141.50;100.00;63355.56;4972016;28;20054;-78
2022/03/07 07:35:41;;;;;;;41.67;12.55;;;;;;;-141.50;100.00;63355.56;4970955;28;20058;-80
2022/03/07 07:38:08;;;;;;;65.05;15.75;;;;;;;-141.50;100.00;63355.56;4969306;28;20074;-79
2022/03/07 07:40:35;;;;;;;33.03;9.50;;;;;;;-141.50;100.00;63355.56;4970038;28;20050;-78
2022/03/07 07:43:02;;;;;;;10.15;5.45;;;;;;;-141.50;100.00;63355.56;4972281;28;20145;-80
2022/03/07 07:45:31;;;;;;;51.08;14.25;;;;;;;-141.50;100.00;63355.56;4970891;28;20518;-78
2022/03/07 07:47:59;;;;;;;97.45;23.63;;;;;;;-141.50;100.00;63355.56;4970355;28;20054;-78
2022/03/07 07:50:27;;;;;;;40.58;12.25;;;;;;;-141.50;100.00;63355.56;4971230;28;20472;-79
2022/03/07 07:52:57;;;;;;;38.03;10.80;;;;;;;-141.50;100.00;63355.56;4972450;28;20594;-78
2022/03/07 07:55:23;;;;;;;70.78;14.30;;;;;;;-141.50;100.00;63355.56;4970713;28;20046;-78
2022/03/07 07:57:50;;;;;;;20.42;7.57;;;;;;;-141.50;100.00;63355.56;4972836;28;20113;-79
2022/03/07 08:00:20;;;;;;;116.10;25.13;;;;;;;-141.50;100.00;63355.56;4972953;28;20066;-79
2022/03/07 08:02:50;;;;;;;34.85;9.57;;;;;;;-141.50;100.00;63355.56;4960790;28;20051;-79
2022/03/07 08:05:18;;;;;;;18.27;6.43;;;;;;;-141.50;100.00;63355.56;4972522;28;20099;-80
2022/03/07 08:07:45;;;;;;;18.30;6.65;;;;;;;-141.50;100.00;63355.56;4970270;28;20415;-78
2022/03/07 08:10:14;;;;;;;16.20;6.85;;;;;;;-141.50;100.00;63355.56;4968467;28;20392;-79
2022/03/07 08:12:41;;;;;;;11.35;5.22;;;;;;;-141.50;100.00;63355.56;4972416;28;20050;-78
2022/03/07 08:15:12;;;;;;;44.38;12.30;;;;;;;-141.50;100.00;63355.56;4973042;28;20046;-78
2022/03/07 08:17:43;;;;;;;23.05;7.68;;;;;;;-141.50;100.00;63355.56;4974741;28;20125;-78
2022/03/07 08:20:10;;;;;;;13.32;5.80;;;;;;;-141.50;100.00;63355.56;4987090;28;20491;-83
2022/03/07 08:22:37;;;;;;;48.17;14.07;;;;;;;-141.50;100.00;63355.56;4959106;28;20042;-78
2022/03/07 08:25:04;;;;;;;38.47;10.90;;;;;;;-141.50;100.00;63355.56;4969535;28;20409;-78
2022/03/07 08:27:32;;;;;;;32.30;11.65;;;;;;;-141.50;100.00;63355.56;4970314;28;20478;-78
2022/03/07 08:29:59;;;;;;;39.40;11.90;;;;;;;-141.50;100.00;63355.56;4972198;28;20098;-78
2022/03/07 08:32:26;;;;;;;60.70;16.55;;;;;;;-141.50;100.00;63355.56;4970656;28;20054;-77
2022/03/07 08:34:52;;;;;;;12.07;5.25;;;;;;;-141.50;100.00;63355.56;4970372;28;20160;-79
2022/03/07 08:37:19;;;;;;;15.43;5.97;;;;;;;-141.50;100.00;63355.56;4973523;28;20470;-77
2022/03/07 08:39:45;;;;;;;7.00;4.30;;;;;;;-141.50;100.00;63355.56;4972574;28;20502;-80
2022/03/07 08:42:12;;;;;;;9.18;4.07;;;;;;;-141.50;100.00;63355.56;4971588;28;20046;-78
2022/03/07 08:44:38;;;;;;;28.13;9.52;;;;;;;-141.50;100.00;63355.56;4969971;28;20515;-78
2022/03/07 08:47:05;;;;;;;9.65;4.43;;;;;;;-141.50;100.00;63355.56;4986722;28;20495;-79
2022/03/07 08:49:32;;;;;;;46.08;13.02;;;;;;;-141.50;100.00;63355.56;4969554;28;20050;-78
2022/03/07 08:52:02;;;;;;;7.82;4.50;;;;;;;-141.50;100.00;63355.56;4969467;28;20050;-78
2022/03/07 08:54:29;;;;;;;10.38;3.83;;;;;;;-141.50;100.00;63355.56;4973137;28;20491;-79
2022/03/07 08:56:56;;;;;;;13.20;4.40;;;;;;;-141.50;100.00;63355.56;4967258;28;20042;-79
2022/03/07 08:59:24;;;;;;;46.30;13.35;;;;;;;-141.50;100.00;63355.56;4969667;28;20078;-79
2022/03/07 09:01:51;;;;;;;31.15;8.90;;;;;;;-141.50;100.00;63355.56;4971870;28;20051;-79
2022/03/07 09:04:17;;;;;;;9.68;4.40;;;;;;;-141.50;100.00;63355.56;4971363;28;20562;-79
2022/03/07 09:06:44;;;;;;;11.60;4.53;;;;;;;-141.50;100.00;63355.56;4969943;28;20055;-77
2022/03/07 09:09:10;;;;;;;7.85;4.32;;;;;;;-141.50;100.00;63355.56;4982428;28;20050;-80
2022/03/07 09:11:57;;;;;;;9.77;4.30;;;;;;;-141.50;100.00;63355.56;4983396;28;20147;-77
2022/03/07 09:14:23;;;;;;;8.55;4.15;;;;;;;-141.50;100.00;63355.56;4972564;28;20046;-79
2022/03/07 09:16:50;;;;;;;8.13;3.22;;;;;;;-141.50;100.00;63355.56;4970704;28;20580;-78
2022/03/07 09:19:17;;;;;;;7.47;3.80;;;;;;;-141.50;100.00;63355.56;4969885;28;20341;-78
2022/03/07 09:21:44;;;;;;;6.15;3.50;;;;;;;-141.50;100.00;63355.56;4968875;28;20058;-79
2022/03/07 09:24:10;;;;;;;11.63;4.57;;;;;;;-141.50;100.00;63355.56;4967392;28;20082;-79
2022/03/07 09:26:37;;;;;;;7.70;4.05;;;;;;;-141.50;100.00;63355.56;4969632;28;20128;-79
2022/03/07 09:29:04;;;;;;;11.18;4.50;;;;;;;-141.50;100.00;63355.56;4971995;28;20636;-78
2022/03/07 09:31:30;;;;;;;8.23;3.72;;;;;;;-141.50;100.00;63355.56;4973055;28;20051;-80
2022/03/07 09:33:57;;;;;;;10.20;4.00;;;;;;;-141.50;100.00;63355.56;4972405;28;20057;-79
2022/03/07 09:36:24;;;;;;;7.82;3.80;;;;;;;-141.50;100.00;63355.56;4971263;28;20555;-79
2022/03/07 09:38:50;;;;;;;6.20;3.28;;;;;;;-141.50;100.00;63355.56;4971082;28;20054;-79
2022/03/07 09:41:18;;;;;;;8.13;4.28;;;;;;;-141.50;100.00;63355.56;4981726;28;20054;-79
2022/03/07 09:43:46;;;;;;;7.45;3.80;;;;;;;-141.50;100.00;63355.56;4983213;28;20078;-78
2022/03/07 09:46:14;;;;;;;7.03;3.55;;;;;;;-141.50;100.00;63355.56;4953117;29;20055;-79
2022/03/07 09:48:43;;;;;;;7.60;3.70;;;;;;;-141.50;100.00;63355.56;4953517;28;20056;-79
2022/03/07 09:51:13;;;;;;;6.97;3.75;;;;;;;-141.50;100.00;63355.56;4956271;28;20081;-79
2022/03/07 09:53:40;;;;;;;9.00;4.10;;;;;;;-141.50;100.00;63355.56;4972725;28;20118;-79
2022/03/07 09:56:09;;;;;;;9.35;3.72;;;;;;;-141.50;100.00;63355.56;4973332;28;20495;-79
2022/03/07 09:58:35;;;;;;;9.23;4.15;;;;;;;-141.50;100.00;63355.56;4973217;28;20051;-79
2022/03/07 10:01:10;;;;;;;7.32;3.28;;;;;;;-141.50;100.00;63355.56;4989383;28;20047;-81
2022/03/07 10:03:36;;;;;;;7.50;3.40;;;;;;;-141.50;100.00;63355.56;4973328;28;20105;-78
2022/03/07 10:06:12;;;;;;;7.60;3.47;;;;;;;-141.50;100.00;63355.56;4964294;28;20058;-78
2022/03/07 10:08:49;;;;;;;8.77;4.20;;;;;;;-141.50;100.00;63355.56;4967342;28;20550;-78
2022/03/07 10:11:16;;;;;;;7.05;3.28;;;;;;;-141.50;100.00;63355.56;4974687;28;20090;-79
2022/03/07 10:13:53;;;;;;;8.88;3.67;;;;;;;-141.50;100.00;63355.56;4982762;28;20051;-79
2022/03/07 10:16:37;;;;;;;8.10;3.53;;;;;;;-141.50;100.00;63355.56;4984963;28;20138;-78
2022/03/07 10:19:11;;;;;;;7.55;3.40;;;;;;;-141.50;100.00;63355.56;4980795;28;20058;-78
2022/03/07 10:21:45;;;;;;;5.75;2.40;;;;;;;-141.50;100.00;63355.56;5005683;28;20054;-79
2022/03/07 10:24:11;;;;;;;9.93;3.95;;;;;;;-141.50;100.00;63355.56;4980666;28;20047;-79
2022/03/07 10:26:38;;;;;;;9.57;4.18;;;;;;;-141.50;100.00;63355.56;4974485;28;20121;-78
2022/03/07 10:29:06;;;;;;;9.02;4.35;;;;;;;-141.50;100.00;63355.56;4971790;28;20054;-78
2022/03/07 10:31:52;;;;;;;7.90;3.38;;;;;;;-141.50;100.00;63355.56;4972305;28;20318;-78
2022/03/07 10:34:19;;;;;;;9.73;3.10;;;;;;;-141.50;100.00;63355.56;4972605;28;20050;-79
2022/03/07 10:36:47;;;;;;;6.85;2.33;;;;;;;-141.50;100.00;63355.56;4967099;28;20090;-80
2022/03/07 10:39:21;;;;;;;6.93;2.03;;;;;;;-141.50;100.00;63355.56;4953682;28;20238;-79
2022/03/07 10:41:48;;;;;;;8.60;2.80;;;;;;;-141.50;100.00;63355.56;4960540;28;20089;-79
2022/03/07 10:44:30;;;;;;;6.47;2.85;;;;;;;-141.50;100.00;63355.56;4972305;28;20058;-78
2022/03/07 10:47:06;;;;;;;5.07;2.00;;;;;;;-141.50;100.00;63355.56;4974692;28;20089;-79
2022/03/07 10:49:33;;;;;;;5.05;2.30;;;;;;;-141.50;100.00;63355.56;4975247;28;20062;-78
2022/03/07 10:52:03;;;;;;;6.15;2.83;;;;;;;-141.50;100.00;63355.56;4972961;28;20098;-78
2022/03/07 10:54:35;;;;;;;6.28;2.25;;;;;;;-141.50;100.00;63355.56;4972046;28;20058;-79
2022/03/07 10:57:02;;;;;;;7.35;2.70;;;;;;;-141.50;100.00;63355.56;4972553;28;20058;-78
2022/03/07 10:59:32;;;;;;;6.45;2.60;;;;;;;-141.50;100.00;63355.56;4955259;28;20350;-79
2022/03/07 11:02:09;;;;;;;4.90;2.78;;;;;;;-141.50;100.00;63355.56;4963200;28;20545;-79
2022/03/07 11:04:41;;;;;;;5.78;2.50;;;;;;;-141.50;100.00;63355.56;4973760;28;20070;-78